Aérodrome :
LOGIN :

S'inscrire | Disclaimer

   EN    FR    IT 

 










Légende :    VFR   VFR Marginal   IFR   IFR Intensif   IFR Très Intensif
Visi : 
Plafond : 
>= 8 km
>= 3000ft
5 à 8 km
1000 à 3000 ft
1500m à 5 km
500 à 1000 ft
800 à 1500m
200 à 500 ft
< 800m
< 200 ft
Symboles :   Orages  Brouillard  Fortes neiges  Fortes précipitations  Vent > 20 kt
SIGMETs :   Divers  Orages  Givrage  Turbulence  Onde Orograph.  Cendres Volcan.







- Altitude de l'aérodrome : 505 ft
- Code IATA : SXB
- Voir les cartes d'approche


LFST - Strasbourg

DERNIER METAR :
  • 171900Z AUTO 01009KT 4200 -SNRA BR OVC004 01/00 Q1023 BECMG 7000 NSW FEW008 BKN020

METARs EXPIRÉS :
  • 171830Z AUTO 36008KT 3300 -SN BR OVC004 01/00 Q1022 BECMG 7000 NSW FEW008 BKN020
  • 171800Z AUTO 01008KT 4000 SN BR OVC004 01/00 Q1022 BECMG 7000 NSW FEW008 BKN020
  • 171730Z AUTO 36007KT 3900 -SN BR OVC004 01/00 Q1021 BECMG 7000 NSW FEW008 BKN020
  • 171700Z AUTO 01008KT 4500 -SN BR OVC005 01/00 Q1021 TEMPO 1500 -SN
  • 171630Z AUTO 01006KT 7000 -RA OVC006 01/01 Q1020 TEMPO 1500 -SN OVC004

TAF TAF LFST
Valide du 17 à 18h jusqu'au 18 à 18h UTC


171703Z 1718/1818 01008KT 2500 -SN OVC004
BECMG 1718/1721 7000 NSW FEW008 BKN020
BECMG 1721/1724 4000 BR BKN005
TEMPO 1801/1809 1000 BCFG OVC002
BECMG 1810/1813 8000 NSW FEW015
Pas de NOTAMs connus pour ce terrain.



MET'MAP, la Météo Aéronautique d'un coup d'oeil ! - Copyright ORBIFLY Décembre 2007 - Disclaimer

ORBIFLY MET'MAP TEAM :

Programmation & Développement : Alexandra Zaïnal
Conception & Développement : Baudouin d'Aumeries
Co-Programmation & Développement : Marc-Olivier Méhu
Soutien technique & logistique : Manuel Goepfert

Contact : metmap@orbifly.com




SOURCES & CREDITS :

   NOAA